createdAt,value
2018-09-30T00:01:50.281Z,1024.5
2018-09-30T00:06:50.213Z,1024.5
2018-09-30T00:11:50.019Z,1024.4
2018-09-30T00:16:50.622Z,1024.4
2018-09-30T00:21:50.187Z,1024.4
2018-09-30T00:26:50.795Z,1024.3
2018-09-30T00:31:50.368Z,1024.1
2018-09-30T00:36:50.116Z,1024.1
2018-09-30T00:41:50.367Z,1024.1
2018-09-30T00:46:49.685Z,1024.1
2018-09-30T00:51:50.093Z,1024
2018-09-30T00:56:49.735Z,1023.9
2018-09-30T01:01:50.028Z,1023.9
2018-09-30T01:06:49.561Z,1023.8
2018-09-30T01:11:49.762Z,1023.7
2018-09-30T01:16:50.028Z,1023.7
2018-09-30T01:21:50.519Z,1023.5
2018-09-30T01:26:50.467Z,1023.4
2018-09-30T01:31:50.363Z,1023.4
2018-09-30T01:36:49.826Z,1023.4
2018-09-30T01:41:50.149Z,1023.2
2018-09-30T01:46:50.387Z,1023.2
2018-09-30T01:51:49.874Z,1022.9
2018-09-30T01:56:49.423Z,1022.9
2018-09-30T02:01:49.730Z,1023
2018-09-30T02:06:50.282Z,1022.9
2018-09-30T02:11:49.529Z,1022.8
2018-09-30T02:16:49.800Z,1022.8
2018-09-30T02:21:50.263Z,1022.8
2018-09-30T02:26:49.843Z,1022.6
2018-09-30T02:31:50.112Z,1022.6
2018-09-30T02:36:49.645Z,1022.6
2018-09-30T02:41:49.877Z,1022.6
2018-09-30T02:46:50.139Z,1022.5
2018-09-30T02:51:49.639Z,1022.4
2018-09-30T02:56:50.200Z,1022.3
2018-09-30T03:01:49.550Z,1022.2
2018-09-30T03:06:50.016Z,1022.2
2018-09-30T03:11:50.285Z,1022.2
2018-09-30T03:16:49.491Z,1022
2018-09-30T03:21:49.943Z,1022
2018-09-30T03:26:49.546Z,1021.9
2018-09-30T03:31:49.831Z,1021.8
2018-09-30T03:36:50.283Z,1021.9
2018-09-30T03:41:49.485Z,1021.7
2018-09-30T03:46:49.773Z,1021.8
2018-09-30T03:51:50.220Z,1021.6
2018-09-30T03:56:50.819Z,1021.5
2018-09-30T04:01:50.145Z,1021.5
2018-09-30T04:06:49.609Z,1021.5
2018-09-30T04:11:49.820Z,1021.5
2018-09-30T04:16:50.418Z,1021.5
2018-09-30T04:21:49.660Z,1021.5
2018-09-30T04:26:50.168Z,1021.5
2018-09-30T04:31:49.465Z,1021.6
2018-09-30T04:36:49.873Z,1021.5
2018-09-30T04:41:50.111Z,1021.5
2018-09-30T04:46:49.460Z,1021.4
2018-09-30T04:51:49.850Z,1021.3
2018-09-30T04:56:49.490Z,1021.3
2018-09-30T05:01:49.801Z,1021.4
2018-09-30T05:06:50.258Z,1021.4
2018-09-30T05:11:49.975Z,1021.4
2018-09-30T05:16:50.300Z,1021.3
2018-09-30T05:21:49.731Z,1021.4
2018-09-30T05:26:50.329Z,1021.3
2018-09-30T05:31:49.604Z,1021.5
2018-09-30T05:36:49.544Z,1021.4
2018-09-30T05:41:49.747Z,1021.4
2018-09-30T05:46:49.977Z,1021.4
2018-09-30T05:51:49.464Z,1021.5
2018-09-30T05:56:50.055Z,1021.6
2018-09-30T06:01:50.340Z,1021.5
2018-09-30T06:06:49.846Z,1021.6
2018-09-30T06:11:50.026Z,1021.6
2018-09-30T06:16:49.457Z,1021.6
2018-09-30T06:21:49.841Z,1021.5
2018-09-30T06:26:49.432Z,1021.6
2018-09-30T06:31:49.985Z,1021.6
2018-09-30T06:36:50.134Z,1021.6
2018-09-30T06:41:49.411Z,1021.6
2018-09-30T06:46:49.644Z,1021.6
2018-09-30T06:51:50.117Z,1021.6
2018-09-30T06:56:49.758Z,1021.4
2018-09-30T07:01:49.984Z,1021.4
2018-09-30T07:06:49.513Z,1021.2
2018-09-30T07:11:49.742Z,1021.2
2018-09-30T07:16:50.421Z,1021.2
2018-09-30T07:21:49.479Z,1021.1
2018-09-30T07:26:50.054Z,1021.2
2018-09-30T07:31:49.366Z,1021.2
2018-09-30T07:36:49.852Z,1021.2
2018-09-30T07:41:50.036Z,1021.2
2018-09-30T07:46:50.083Z,1021.1
2018-09-30T07:51:49.834Z,1021.1
2018-09-30T07:56:49.419Z,1021.1
2018-09-30T08:01:49.673Z,1021.1
2018-09-30T08:06:50.169Z,1021
2018-09-30T08:11:49.384Z,1020.9
2018-09-30T08:16:50.106Z,1021
2018-09-30T08:21:50.165Z,1020.8
2018-09-30T08:26:49.699Z,1020.7
2018-09-30T08:31:49.981Z,1020.7
2018-09-30T08:36:49.521Z,1020.7
2018-09-30T08:41:50.107Z,1020.6
2018-09-30T08:46:50.774Z,1020.7
2018-09-30T08:51:49.431Z,1020.7
2018-09-30T08:56:50.105Z,1020.6
2018-09-30T09:01:49.323Z,1020.6
2018-09-30T09:06:50.272Z,1020.5
2018-09-30T09:11:50.060Z,1020.5
2018-09-30T09:16:49.391Z,1020.4
2018-09-30T09:21:49.898Z,1020.5
2018-09-30T09:26:49.410Z,1020.3
2018-09-30T09:31:50.526Z,1020.3
2018-09-30T09:36:50.175Z,1020.3
2018-09-30T09:41:49.383Z,1020.3
2018-09-30T09:46:49.789Z,1020.2
2018-09-30T09:51:50.115Z,1020.2
2018-09-30T09:56:49.710Z,1020.2
2018-09-30T10:01:49.999Z,1020.1
2018-09-30T10:06:49.515Z,1020
2018-09-30T10:11:49.817Z,1019.9
2018-09-30T10:16:50.036Z,1019.9
2018-09-30T10:21:49.426Z,1019.8
2018-09-30T10:26:50.029Z,1019.7
2018-09-30T10:31:49.359Z,1019.6
2018-09-30T10:36:49.800Z,1019.6
2018-09-30T10:41:50.012Z,1019.5
2018-09-30T10:46:49.298Z,1019.4
2018-09-30T10:51:49.776Z,1019.3
2018-09-30T10:56:49.792Z,1019.2
2018-09-30T11:01:49.620Z,1019.1
2018-09-30T11:06:50.557Z,1019
2018-09-30T11:11:49.345Z,1019
2018-09-30T11:16:49.629Z,1018.9
2018-09-30T11:21:50.201Z,1018.7
2018-09-30T11:26:49.744Z,1018.7
2018-09-30T11:31:50.507Z,1018.6
2018-09-30T11:36:49.457Z,1018.5
2018-09-30T11:41:49.724Z,1018.4
2018-09-30T11:46:50.053Z,1018.4
2018-09-30T11:51:49.515Z,1018.4
2018-09-30T11:56:50.112Z,1018.3
2018-09-30T12:01:49.412Z,1018.3
2018-09-30T12:06:49.874Z,1018.1
2018-09-30T12:11:50.049Z,1018.1
2018-09-30T12:16:49.396Z,1018
2018-09-30T12:21:49.887Z,1017.9
2018-09-30T12:26:49.439Z,1017.8
2018-09-30T12:31:49.755Z,1017.7
2018-09-30T12:36:50.176Z,1017.7
2018-09-30T12:41:49.412Z,1017.6
2018-09-30T12:46:49.773Z,1017.5
2018-09-30T12:51:50.128Z,1017.4
2018-09-30T12:56:49.787Z,1017.3
2018-09-30T13:01:50.100Z,1017.2
2018-09-30T13:06:49.599Z,1017.1
2018-09-30T13:11:49.886Z,1017.1
2018-09-30T13:16:50.138Z,1017.1
2018-09-30T13:21:49.541Z,1017
2018-09-30T13:26:50.135Z,1016.8
2018-09-30T13:31:49.507Z,1016.8
2018-09-30T13:36:49.884Z,1016.9
2018-09-30T13:41:50.090Z,1016.8
2018-09-30T13:46:49.477Z,1016.7
2018-09-30T13:51:49.801Z,1016.8
2018-09-30T13:56:49.429Z,1016.8
2018-09-30T14:01:49.743Z,1016.8
2018-09-30T14:06:50.415Z,1016.7
2018-09-30T14:11:49.415Z,1016.7
2018-09-30T14:16:49.739Z,1016.7
2018-09-30T14:21:50.179Z,1016.7
2018-09-30T14:26:50.224Z,1016.6
2018-09-30T14:31:50.085Z,1016.4
2018-09-30T14:36:49.605Z,1016.5
2018-09-30T14:41:49.829Z,1016.5
2018-09-30T14:46:50.071Z,1016.4
2018-09-30T14:51:49.543Z,1016.3
2018-09-30T14:56:50.109Z,1016.4
2018-09-30T15:01:49.394Z,1016.3
2018-09-30T15:06:49.945Z,1016.3
2018-09-30T15:11:50.132Z,1016.3
2018-09-30T15:16:49.427Z,1016.2
2018-09-30T15:21:49.887Z,1016.2
2018-09-30T15:26:49.503Z,1016.2
2018-09-30T15:31:49.831Z,1016.2
2018-09-30T15:36:50.259Z,1016.1
2018-09-30T15:41:49.491Z,1016.1
2018-09-30T15:46:49.780Z,1016
2018-09-30T15:51:50.270Z,1016
2018-09-30T15:56:49.892Z,1016
2018-09-30T16:01:50.122Z,1016
2018-09-30T16:06:49.672Z,1016
2018-09-30T16:11:49.891Z,1016.1
2018-09-30T16:16:50.176Z,1016.1
2018-09-30T16:21:49.635Z,1016.3
2018-09-30T16:26:50.275Z,1016.2
2018-09-30T16:31:49.546Z,1016.2
2018-09-30T16:36:49.990Z,1016.3
2018-09-30T16:41:50.188Z,1016.2
2018-09-30T16:46:49.505Z,1016.3
2018-09-30T16:51:49.955Z,1016.3
2018-09-30T16:56:50.215Z,1016.4
2018-09-30T17:01:49.837Z,1016.5
2018-09-30T17:06:51.252Z,1016.5
2018-09-30T17:11:49.566Z,1016.6
2018-09-30T17:16:49.869Z,1016.7
2018-09-30T17:21:50.331Z,1016.7
2018-09-30T17:26:49.935Z,1016.8
2018-09-30T17:31:50.301Z,1016.8
2018-09-30T17:36:49.665Z,1016.9
2018-09-30T17:41:49.912Z,1017
2018-09-30T17:46:50.192Z,1016.9
2018-09-30T17:51:49.631Z,1017
2018-09-30T17:56:50.295Z,1017
2018-09-30T18:01:49.558Z,1017
2018-09-30T18:06:50.084Z,1017.1
2018-09-30T18:11:49.311Z,1017.1
2018-09-30T18:16:49.860Z,1017
2018-09-30T18:21:50.072Z,1017
2018-09-30T18:26:49.717Z,1017.1
2018-09-30T18:31:49.976Z,1017.1
2018-09-30T18:36:49.405Z,1017
2018-09-30T18:41:49.628Z,1017.1
2018-09-30T18:46:49.888Z,1017
2018-09-30T18:51:50.338Z,1017
2018-09-30T18:56:50.377Z,1016.9
2018-09-30T19:01:50.270Z,1017
2018-09-30T19:06:49.817Z,1017
2018-09-30T19:11:50.006Z,1017
2018-09-30T19:16:49.361Z,1016.9
2018-09-30T19:21:49.749Z,1017
2018-09-30T19:26:49.410Z,1016.9
2018-09-30T19:31:49.661Z,1017
2018-09-30T19:36:50.155Z,1017
2018-09-30T19:41:50.237Z,1017
2018-09-30T19:46:49.666Z,1017
2018-09-30T19:51:50.081Z,1017
2018-09-30T19:56:49.705Z,1017
2018-09-30T20:01:49.951Z,1016.9
2018-09-30T20:06:49.455Z,1016.9
2018-09-30T20:11:49.677Z,1016.9
2018-09-30T20:16:49.964Z,1016.8
2018-09-30T20:21:49.429Z,1016.9
2018-09-30T20:26:49.999Z,1016.8
2018-09-30T20:31:49.293Z,1016.8
2018-09-30T20:36:49.768Z,1016.8
2018-09-30T20:41:49.954Z,1016.7
2018-09-30T20:46:50.341Z,1016.8
2018-09-30T20:51:49.699Z,1016.8
2018-09-30T20:56:49.357Z,1016.7
2018-09-30T21:01:49.649Z,1016.7
2018-09-30T21:06:50.129Z,1016.7
2018-09-30T21:11:49.377Z,1016.7
2018-09-30T21:16:49.706Z,1016.7
2018-09-30T21:21:50.142Z,1016.7
2018-09-30T21:26:49.816Z,1016.6
2018-09-30T21:31:50.048Z,1016.6
2018-09-30T21:36:49.482Z,1016.6
2018-09-30T21:41:49.838Z,1016.7
2018-09-30T21:46:50.031Z,1016.6
2018-09-30T21:51:49.520Z,1016.6
2018-09-30T21:56:50.072Z,1016.6
2018-09-30T22:01:50.307Z,1016.7
2018-09-30T22:06:49.888Z,1016.7
2018-09-30T22:11:50.092Z,1016.7
2018-09-30T22:16:49.403Z,1016.6
2018-09-30T22:21:49.915Z,1016.6
2018-09-30T22:26:49.735Z,1016.6
2018-09-30T22:31:49.783Z,1016.5
2018-09-30T22:36:50.212Z,1016.5
2018-09-30T22:41:49.437Z,1016.5
2018-09-30T22:46:49.732Z,1016.5
2018-09-30T22:51:50.352Z,1016.5
2018-09-30T22:56:49.906Z,1016.7
2018-09-30T23:01:50.178Z,1016.7
2018-09-30T23:06:49.690Z,1016.6
2018-09-30T23:11:49.891Z,1016.7
2018-09-30T23:16:50.163Z,1016.6
2018-09-30T23:21:49.668Z,1016.7
2018-09-30T23:26:49.305Z,1016.7
2018-09-30T23:31:49.536Z,1016.8
2018-09-30T23:36:50.062Z,1016.7
2018-09-30T23:41:49.267Z,1016.6
2018-09-30T23:46:49.555Z,1016.6
2018-09-30T23:51:50.005Z,1016.7
2018-09-30T23:56:49.626Z,1016.7
